Time;durP1;ratioP1;P1;durP2;ratioP2;P2;SDS_P1;SDS_P2;PMS_P1;PMS_P2;Temp;Humidity;BMP_temperature;BMP_pressure;BME280_temperature;BME280_humidity;BME280_pressure;Samples;Min_cycle;Max_cycle;Signal;HPM_P1;HPM_P2
2024/01/10 00:01:27;;;;;;;;;;;;;;;6.50;46.53;102460.50;4965475;27;112328;-63
2024/01/10 00:03:54;;;;;;;;;;;;;;;6.49;46.51;102462.38;4957359;27;98568;-63
2024/01/10 00:06:20;;;;;;;;;;;;;;;6.47;46.37;102459.03;4943358;27;98363;-67
2024/01/10 00:08:46;;;;;;;;;;;;;;;6.47;46.52;102459.03;4947372;27;98590;-64
2024/01/10 00:11:12;;;;;;;;;;;;;;;6.48;46.53;102457.19;4944759;27;100299;-63
2024/01/10 00:13:37;;;;;;;;;;;;;;;6.46;46.50;102459.25;4947902;28;99369;-64
2024/01/10 00:16:04;;;;;;;;;;;;;;;6.46;46.65;102469.97;4959170;27;105971;-69
2024/01/10 00:18:30;;;;;;;;;;;;;;;6.45;46.39;102457.59;4965119;27;98500;-64
2024/01/10 00:20:56;;;;;;;;;;;;;;;6.44;46.53;102458.59;4966307;27;98295;-63
2024/01/10 00:23:22;;;;;;;;;;;;;;;6.44;46.72;102469.31;4965707;27;98460;-64
2024/01/10 00:25:48;;;;;;;;;;;;;;;6.43;46.55;102459.63;4977584;27;98449;-67
2024/01/10 00:28:17;;;;;;;;;;;;;;;6.41;46.68;102462.50;4944786;27;100172;-63
2024/01/10 00:30:44;;;;;;;;;;;;;;;6.42;46.49;102455.28;4979188;27;100718;-63
2024/01/10 00:33:09;;;;;;;;;;;;;;;6.41;46.29;102451.78;4942637;27;108107;-66
2024/01/10 00:35:35;;;;;;;;;;;;;;;6.40;46.48;102442.06;4963583;27;117360;-63
2024/01/10 00:38:01;;;;;;;;;;;;;;;6.40;46.35;102439.38;4966509;27;99387;-63
2024/01/10 00:40:27;;;;;;;;;;;;;;;6.40;46.66;102444.75;4946557;27;99427;-66
2024/01/10 00:42:53;;;;;;;;;;;;;;;6.39;46.49;102445.78;4945973;27;99371;-66
2024/01/10 00:45:20;;;;;;;;;;;;;;;6.39;46.34;102443.09;4961527;28;117430;-66
2024/01/10 00:47:48;;;;;;;;;;;;;;;6.39;46.42;102440.41;4945102;27;98068;-63
2024/01/10 00:50:14;;;;;;;;;;;;;;;6.38;46.45;102434.22;4962776;27;99743;-63
2024/01/10 00:52:40;;;;;;;;;;;;;;;6.37;46.70;102434.44;4977017;27;109643;-63
2024/01/10 00:55:06;;;;;;;;;;;;;;;6.37;46.44;102431.75;4975255;27;102941;-63
2024/01/10 00:57:32;;;;;;;;;;;;;;;6.37;46.43;102426.41;4961507;27;113180;-63
2024/01/10 00:59:58;;;;;;;;;;;;;;;6.37;46.37;102434.44;4944040;27;130781;-63
2024/01/10 01:02:24;;;;;;;;;;;;;;;6.36;46.26;102424.72;4945064;27;112783;-63
2024/01/10 01:04:50;;;;;;;;;;;;;;;6.36;46.48;102430.06;4944549;28;99910;-63
2024/01/10 01:07:16;;;;;;;;;;;;;;;6.36;46.21;102440.78;4959469;27;98168;-63
2024/01/10 01:09:42;;;;;;;;;;;;;;;6.34;46.45;102435.63;4960291;27;128165;-63
2024/01/10 01:12:08;;;;;;;;;;;;;;;6.35;46.57;102442.63;4978753;27;126476;-66
2024/01/10 01:14:34;;;;;;;;;;;;;;;6.34;46.36;102441.00;4944784;27;98151;-63
2024/01/10 01:17:00;;;;;;;;;;;;;;;6.32;46.51;102432.31;4957431;27;111516;-66
2024/01/10 01:19:26;;;;;;;;;;;;;;;6.34;46.47;102437.50;4946763;27;99679;-63
2024/01/10 01:21:52;;;;;;;;;;;;;;;6.33;46.32;102449.22;4963048;27;99109;-63
2024/01/10 01:24:18;;;;;;;;;;;;;;;6.31;46.49;102457.44;4965410;27;100510;-63
2024/01/10 01:26:44;;;;;;;;;;;;;;;6.32;46.12;102447.56;4961413;27;103994;-63
2024/01/10 01:29:10;;;;;;;;;;;;;;;6.31;46.49;102454.75;4961867;28;99580;-66
2024/01/10 01:31:37;;;;;;;;;;;;;;;6.30;46.34;102450.44;4958285;27;98051;-67
2024/01/10 01:34:03;;;;;;;;;;;;;;;6.29;46.68;102454.13;4946102;27;98590;-63
2024/01/10 01:36:29;;;;;;;;;;;;;;;6.30;46.41;102453.09;4961486;27;98260;-63
2024/01/10 01:38:58;;;;;;;;;;;;;;;6.28;46.51;102451.63;4945471;27;98907;-66
2024/01/10 01:41:23;;;;;;;;;;;;;;;6.28;46.55;102454.31;4939497;27;124441;-63
2024/01/10 01:43:49;;;;;;;;;;;;;;;6.27;46.53;102452.66;4961486;27;117017;-63
2024/01/10 01:46:15;;;;;;;;;;;;;;;6.25;46.34;102452.84;4943302;27;98280;-68
2024/01/10 01:48:41;;;;;;;;;;;;;;;6.25;46.45;102449.31;4945934;27;99819;-66
2024/01/10 01:51:08;;;;;;;;;;;;;;;6.24;46.62;102447.69;4963546;27;98443;-66
2024/01/10 01:53:34;;;;;;;;;;;;;;;6.23;46.71;102454.88;4962649;27;100164;-67
2024/01/10 01:56:03;;;;;;;;;;;;;;;6.22;46.54;102447.06;4967090;27;106547;-63
2024/01/10 01:58:29;;;;;;;;;;;;;;;6.24;46.65;102445.00;4962432;27;99612;-63
2024/01/10 02:00:55;;;;;;;;;;;;;;;6.23;46.43;102446.03;4964002;27;127204;-63
2024/01/10 02:03:21;;;;;;;;;;;;;;;6.23;46.25;102443.34;4966493;27;98991;-63
2024/01/10 02:05:47;;;;;;;;;;;;;;;6.22;46.37;102445.19;4950963;27;119371;-66
2024/01/10 02:08:14;;;;;;;;;;;;;;;6.21;46.46;102445.38;4947363;27;98067;-67
2024/01/10 02:10:39;;;;;;;;;;;;;;;6.20;46.63;102441.88;4947510;27;98282;-66
2024/01/10 02:13:08;;;;;;;;;;;;;;;6.21;46.64;102437.34;4950331;27;114850;-63
2024/01/10 02:15:35;;;;;;;;;;;;;;;6.19;46.51;102442.06;4946892;27;98169;-66
2024/01/10 02:18:01;;;;;;;;;;;;;;;6.15;46.23;102430.91;4967392;27;99451;-66
2024/01/10 02:20:27;;;;;;;;;;;;;;;6.13;46.56;102433.78;4954065;27;98500;-66
2024/01/10 02:22:53;;;;;;;;;;;;;;;6.10;46.43;102430.66;4948425;27;98107;-66
2024/01/10 02:25:19;;;;;;;;;;;;;;;6.08;46.32;102430.81;4950776;28;99912;-66
2024/01/10 02:27:45;;;;;;;;;;;;;;;6.07;46.31;102436.38;4947470;27;97992;-66
2024/01/10 02:30:11;;;;;;;;;;;;;;;6.05;46.41;102425.03;4966205;27;117756;-63
2024/01/10 02:32:37;;;;;;;;;;;;;;;6.04;46.30;102434.09;4979249;27;97870;-66
2024/01/10 02:35:04;;;;;;;;;;;;;;;6.02;46.53;102431.59;4948259;27;98695;-66
2024/01/10 02:37:30;;;;;;;;;;;;;;;6.01;46.59;102435.31;4962884;27;99114;-63
2024/01/10 02:39:56;;;;;;;;;;;;;;;6.00;46.23;102432.81;4960840;27;116834;-63
2024/01/10 02:42:22;;;;;;;;;;;;;;;5.99;46.26;102425.78;4950278;27;110127;-63
2024/01/10 02:44:48;;;;;;;;;;;;;;;5.98;46.38;102424.97;4963327;27;98924;-63
2024/01/10 02:47:14;;;;;;;;;;;;;;;5.97;46.14;102423.28;4960537;27;98354;-66
2024/01/10 02:49:40;;;;;;;;;;;;;;;5.95;46.34;102420.00;4943590;27;99456;-63
2024/01/10 02:52:06;;;;;;;;;;;;;;;5.96;46.75;102428.84;4964712;28;98485;-66
2024/01/10 02:54:32;;;;;;;;;;;;;;;5.95;46.12;102424.50;4964421;27;100015;-67
2024/01/10 02:56:58;;;;;;;;;;;;;;;5.95;46.45;102419.16;4946508;27;111493;-63
2024/01/10 02:59:24;;;;;;;;;;;;;;;5.93;46.58;102411.31;4978084;27;99330;-67
2024/01/10 03:01:50;;;;;;;;;;;;;;;5.92;46.36;102409.66;4971943;27;98047;-66
2024/01/10 03:04:16;;;;;;;;;;;;;;;5.89;46.30;102402.81;4952954;28;99592;-66
2024/01/10 03:06:42;;;;;;;;;;;;;;;5.90;46.45;102400.97;4944878;27;98987;-67
2024/01/10 03:09:08;;;;;;;;;;;;;;;5.90;46.64;102403.63;4960859;27;126663;-63
2024/01/10 03:11:35;;;;;;;;;;;;;;;5.89;46.29;102396.59;4950240;27;98174;-63
2024/01/10 03:14:03;;;;;;;;;;;;;;;5.88;46.24;102398.47;4950983;27;99755;-67
2024/01/10 03:16:30;;;;;;;;;;;;;;;5.87;46.28;102390.63;4965305;28;98161;-63
2024/01/10 03:18:56;;;;;;;;;;;;;;;5.87;46.09;102393.31;4951832;27;98001;-66
2024/01/10 03:21:26;;;;;;;;;;;;;;;5.85;46.20;102387.28;4944611;27;104025;-66
2024/01/10 03:23:52;;;;;;;;;;;;;;;5.85;46.16;102388.13;4964645;27;98287;-66
2024/01/10 03:26:18;;;;;;;;;;;;;;;5.84;46.07;102382.97;4968800;27;97879;-63
2024/01/10 03:28:44;;;;;;;;;;;;;;;5.83;45.91;102382.16;4950559;27;99143;-63
2024/01/10 03:31:14;;;;;;;;;;;;;;;5.83;46.30;102384.00;4946201;27;97886;-63
2024/01/10 03:33:40;;;;;;;;;;;;;;;5.80;46.23;102379.84;4964115;27;98292;-63
2024/01/10 03:36:09;;;;;;;;;;;;;;;5.81;46.27;102386.03;4959649;27;98437;-67
2024/01/10 03:38:35;;;;;;;;;;;;;;;5.80;46.00;102390.53;4962855;27;100470;-67
2024/01/10 03:41:01;;;;;;;;;;;;;;;5.80;46.22;102382.53;4976634;27;99236;-63
2024/01/10 03:43:27;;;;;;;;;;;;;;;5.78;46.39;102384.56;4965023;27;103739;-66
2024/01/10 03:45:53;;;;;;;;;;;;;;;5.79;46.43;102388.06;4955427;27;128884;-66
2024/01/10 03:48:19;;;;;;;;;;;;;;;5.78;45.92;102386.41;4961193;27;98067;-66
2024/01/10 03:50:45;;;;;;;;;;;;;;;5.76;46.51;102383.91;4947203;27;97889;-67
2024/01/10 03:53:11;;;;;;;;;;;;;;;5.76;46.49;102388.44;4945745;27;110049;-66
2024/01/10 03:55:38;;;;;;;;;;;;;;;5.75;46.12;102384.94;4944039;27;104526;-66
2024/01/10 03:58:05;;;;;;;;;;;;;;;5.74;46.29;102382.44;4947672;27;99002;-63
2024/01/10 04:00:31;;;;;;;;;;;;;;;5.74;46.53;102379.75;4942688;28;98768;-63
2024/01/10 04:02:57;;;;;;;;;;;;;;;5.72;46.43;102379.97;4942811;27;98367;-67
2024/01/10 04:05:25;;;;;;;;;;;;;;;5.71;46.29;102372.97;4951831;27;102178;-63
2024/01/10 04:07:51;;;;;;;;;;;;;;;5.71;46.12;102377.47;4964265;27;98003;-63
2024/01/10 04:10:17;;;;;;;;;;;;;;;5.72;46.10;102381.81;4948045;27;98237;-63
2024/01/10 04:12:43;;;;;;;;;;;;;;;5.71;46.20;102380.97;4960587;27;98187;-63
2024/01/10 04:15:10;;;;;;;;;;;;;;;5.71;46.15;102380.16;4976407;27;98619;-66
2024/01/10 04:17:36;;;;;;;;;;;;;;;5.70;46.32;102382.00;4941643;27;98247;-66
2024/01/10 04:20:02;;;;;;;;;;;;;;;5.70;46.40;102378.47;4947190;27;99614;-66
2024/01/10 04:22:28;;;;;;;;;;;;;;;5.70;46.19;102373.13;4945639;27;100052;-66
2024/01/10 04:24:59;;;;;;;;;;;;;;;5.71;46.44;102372.13;4980317;27;97987;-63
2024/01/10 04:27:26;;;;;;;;;;;;;;;5.75;45.86;102371.56;4943686;27;99073;-63
2024/01/10 04:29:52;;;;;;;;;;;;;;;5.82;46.40;102380.50;4956480;27;104473;-63
2024/01/10 04:32:18;;;;;;;;;;;;;;;5.87;46.49;102383.41;4975464;27;99514;-67
2024/01/10 04:34:44;;;;;;;;;;;;;;;5.93;46.53;102375.69;4942569;27;116578;-63
2024/01/10 04:37:10;;;;;;;;;;;;;;;5.96;46.63;102376.13;4971531;27;98189;-66
2024/01/10 04:39:37;;;;;;;;;;;;;;;5.99;46.25;102374.94;4946109;27;98194;-67
2024/01/10 04:42:04;;;;;;;;;;;;;;;6.01;46.33;102379.09;4961496;27;98034;-63
2024/01/10 04:44:30;;;;;;;;;;;;;;;6.04;46.09;102380.53;4941901;27;122414;-67
2024/01/10 04:46:56;;;;;;;;;;;;;;;6.05;46.18;102382.19;4943235;27;98363;-66
2024/01/10 04:49:22;;;;;;;;;;;;;;;6.05;46.37;102369.66;4962415;27;98020;-63
2024/01/10 04:51:49;;;;;;;;;;;;;;;6.07;46.24;102364.09;4947961;27;99833;-66
2024/01/10 04:54:15;;;;;;;;;;;;;;;6.07;46.41;102370.28;4959773;27;101111;-63
2024/01/10 04:56:41;;;;;;;;;;;;;;;6.07;46.38;102378.31;4947460;27;98052;-63
2024/01/10 04:59:07;;;;;;;;;;;;;;;6.08;46.34;102379.13;4949430;27;98633;-63
2024/01/10 05:01:34;;;;;;;;;;;;;;;6.08;46.50;102377.28;4943260;27;98818;-67
2024/01/10 05:04:00;;;;;;;;;;;;;;;6.07;46.33;102378.31;4945098;27;98329;-63
2024/01/10 05:06:26;;;;;;;;;;;;;;;6.07;46.32;102377.47;4957202;27;98049;-63
2024/01/10 05:08:53;;;;;;;;;;;;;;;6.08;46.52;102379.13;4964951;27;98483;-63
2024/01/10 05:11:19;;;;;;;;;;;;;;;6.06;46.34;102384.69;4976566;27;99575;-66
2024/01/10 05:13:45;;;;;;;;;;;;;;;6.06;46.17;102384.69;4945373;27;106460;-63
2024/01/10 05:16:11;;;;;;;;;;;;;;;6.05;46.18;102377.69;4948121;27;98763;-66
2024/01/10 05:18:37;;;;;;;;;;;;;;;6.06;46.29;102378.50;4955502;27;98353;-66
2024/01/10 05:21:03;;;;;;;;;;;;;;;6.05;46.35;102377.69;4961577;27;98501;-67
2024/01/10 05:23:29;;;;;;;;;;;;;;;6.04;46.57;102383.22;4969184;28;100489;-66
2024/01/10 05:25:55;;;;;;;;;;;;;;;6.03;46.26;102390.41;4948249;27;98419;-66
2024/01/10 05:28:21;;;;;;;;;;;;;;;6.02;46.48;102388.75;4948620;27;120631;-63
2024/01/10 05:30:47;;;;;;;;;;;;;;;6.02;46.35;102391.44;4945230;27;108339;-63
2024/01/10 05:33:13;;;;;;;;;;;;;;;6.01;46.26;102389.78;4964025;27;113813;-67
2024/01/10 05:35:39;;;;;;;;;;;;;;;6.00;46.25;102385.44;4948642;27;99437;-66
2024/01/10 05:38:05;;;;;;;;;;;;;;;5.99;46.36;102393.66;4979559;27;98493;-63
2024/01/10 05:40:31;;;;;;;;;;;;;;;5.98;46.14;102384.81;4944496;28;127956;-63
2024/01/10 05:42:59;;;;;;;;;;;;;;;5.98;46.42;102397.38;4948449;27;102940;-63
2024/01/10 05:45:25;;;;;;;;;;;;;;;5.98;46.13;102375.97;4951420;27;98339;-66
2024/01/10 05:47:51;;;;;;;;;;;;;;;5.98;46.15;102378.63;4968040;27;98079;-66
2024/01/10 05:50:17;;;;;;;;;;;;;;;5.95;46.38;102379.84;4946256;27;98148;-67
2024/01/10 05:52:43;;;;;;;;;;;;;;;5.95;46.71;102379.84;4966471;27;122703;-67
2024/01/10 05:55:10;;;;;;;;;;;;;;;5.94;46.44;102386.22;4966728;27;110254;-63
2024/01/10 05:57:36;;;;;;;;;;;;;;;5.95;46.53;102390.53;4954930;27;98504;-63
2024/01/10 06:00:03;;;;;;;;;;;;;;;5.94;46.16;102374.69;4967860;27;98101;-63
2024/01/10 06:02:29;;;;;;;;;;;;;;;5.93;46.42;102383.72;4980365;27;98236;-63
2024/01/10 06:04:55;;;;;;;;;;;;;;;5.92;46.48;102385.56;4949323;27;99063;-63
2024/01/10 06:07:21;;;;;;;;;;;;;;;5.92;46.30;102385.56;4949507;27;97895;-66
2024/01/10 06:09:47;;;;;;;;;;;;;;;5.91;46.41;102382.03;4951244;27;99633;-66
2024/01/10 06:12:14;;;;;;;;;;;;;;;5.89;46.26;102370.69;4979404;27;99217;-63
2024/01/10 06:14:40;;;;;;;;;;;;;;;5.89;46.45;102378.72;4946321;27;98233;-63
2024/01/10 06:17:06;;;;;;;;;;;;;;;5.88;46.21;102377.03;4950171;27;98068;-63
2024/01/10 06:19:32;;;;;;;;;;;;;;;5.87;46.51;102378.06;4958320;27;97944;-67
2024/01/10 06:21:59;;;;;;;;;;;;;;;5.87;46.36;102377.25;4966484;27;128688;-66
2024/01/10 06:24:26;;;;;;;;;;;;;;;5.87;46.27;102386.09;4965767;27;98135;-67
2024/01/10 06:26:52;;;;;;;;;;;;;;;5.87;46.05;102383.41;4949665;27;98124;-66
2024/01/10 06:29:18;;;;;;;;;;;;;;;5.87;45.98;102385.28;4950605;27;99329;-63
2024/01/10 06:31:44;;;;;;;;;;;;;;;5.86;46.18;102386.31;4964079;27;105228;-66
2024/01/10 06:34:11;;;;;;;;;;;;;;;5.86;46.20;102386.31;4963444;27;98265;-67
2024/01/10 06:36:37;;;;;;;;;;;;;;;5.86;46.47;102383.63;4962012;27;98262;-66
2024/01/10 06:39:03;;;;;;;;;;;;;;;5.85;46.23;102380.09;4966482;27;98114;-63
2024/01/10 06:41:29;;;;;;;;;;;;;;;5.83;46.09;102378.66;4966950;27;98461;-66
2024/01/10 06:43:55;;;;;;;;;;;;;;;5.84;46.33;102375.75;4949236;27;98268;-63
2024/01/10 06:46:21;;;;;;;;;;;;;;;5.83;46.02;102384.00;4950821;27;98129;-63
2024/01/10 06:48:47;;;;;;;;;;;;;;;5.82;46.27;102379.66;4950189;27;99481;-65
2024/01/10 06:51:13;;;;;;;;;;;;;;;5.81;46.52;102373.47;4955379;27;98090;-66
2024/01/10 06:53:40;;;;;;;;;;;;;;;5.79;46.41;102372.00;4949947;27;98105;-63
2024/01/10 06:56:06;;;;;;;;;;;;;;;5.79;45.96;102372.84;4960926;27;97876;-67
2024/01/10 06:58:32;;;;;;;;;;;;;;;5.77;46.19;102372.19;4959997;27;98527;-63
2024/01/10 07:01:04;;;;;;;;;;;;;;;5.79;46.23;102367.50;4951103;27;97967;-63
2024/01/10 07:03:31;;;;;;;;;;;;;;;5.78;46.04;102373.88;4964173;27;98797;-63
2024/01/10 07:05:58;;;;;;;;;;;;;;;5.79;46.02;102374.69;4956461;27;98094;-63
2024/01/10 07:08:25;;;;;;;;;;;;;;;5.77;46.05;102374.84;4941566;27;98905;-67
2024/01/10 07:10:51;;;;;;;;;;;;;;;5.79;46.33;102366.66;4942751;27;107369;-67
2024/01/10 07:13:17;;;;;;;;;;;;;;;5.79;46.41;102375.50;4939764;27;125286;-63
2024/01/10 07:15:43;;;;;;;;;;;;;;;5.80;46.04;102370.97;4959990;27;98153;-63
2024/01/10 07:18:09;;;;;;;;;;;;;;;5.79;46.36;102378.19;4959373;27;98390;-67
2024/01/10 07:20:36;;;;;;;;;;;;;;;5.81;46.28;102370.78;4939979;27;100370;-67
2024/01/10 07:23:02;;;;;;;;;;;;;;;5.83;46.22;102378.66;4957195;27;98082;-67
2024/01/10 07:25:28;;;;;;;;;;;;;;;5.84;46.34;102380.28;4957748;27;98239;-63
2024/01/10 07:27:54;;;;;;;;;;;;;;;5.86;46.24;102375.59;4940104;27;98155;-63
2024/01/10 07:30:20;;;;;;;;;;;;;;;5.86;46.17;102376.41;4956133;27;113102;-66
2024/01/10 07:32:46;;;;;;;;;;;;;;;5.88;46.27;102381.56;4944000;27;98691;-64
2024/01/10 07:35:13;;;;;;;;;;;;;;;5.89;46.04;102373.38;4961931;27;98269;-63
2024/01/10 07:37:40;;;;;;;;;;;;;;;5.93;45.92;102368.47;4943821;27;98200;-63
2024/01/10 07:40:08;;;;;;;;;;;;;;;5.97;45.99;102374.28;4976201;27;100162;-67
2024/01/10 07:42:34;;;;;;;;;;;;;;;6.00;46.08;102372.06;4945507;28;98311;-63
2024/01/10 07:45:04;;;;;;;;;;;;;;;6.05;45.82;102366.97;4948879;27;99028;-67
2024/01/10 07:47:31;;;;;;;;;;;;;;;6.12;46.08;102373.19;4941051;27;98222;-63
2024/01/10 07:49:57;;;;;;;;;;;;;;;6.18;45.91;102363.59;4954385;27;99803;-63
2024/01/10 07:52:23;;;;;;;;;;;;;;;6.25;46.11;102363.63;4946094;27;98077;-63
2024/01/10 07:54:49;;;;;;;;;;;;;;;6.35;45.89;102354.25;4958914;27;98042;-63
2024/01/10 07:57:18;;;;;;;;;;;;;;;6.46;45.64;102352.91;4944195;27;98199;-63
2024/01/10 07:59:45;;;;;;;;;;;;;;;6.62;45.62;102355.28;4941171;27;98649;-63
2024/01/10 08:02:11;;;;;;;;;;;;;;;6.82;45.14;102344.69;4956492;27;99200;-67
2024/01/10 08:04:37;;;;;;;;;;;;;;;6.96;45.45;102347.47;4940960;27;98451;-64
2024/01/10 08:07:03;;;;;;;;;;;;;;;7.10;45.37;102351.84;4936636;27;115214;-63
2024/01/10 08:09:30;;;;;;;;;;;;;;;7.34;45.43;102347.84;4939145;27;98300;-63
2024/01/10 08:11:55;;;;;;;;;;;;;;;7.57;44.74;102347.50;4962875;27;98462;-63
2024/01/10 08:14:21;;;;;;;;;;;;;;;7.79;45.07;102350.88;4959151;27;117033;-66
2024/01/10 08:16:47;;;;;;;;;;;;;;;8.31;44.91;102338.53;4936495;27;128334;-67
2024/01/10 08:19:14;;;;;;;;;;;;;;;8.98;43.74;102336.63;4941877;27;128663;-67
2024/01/10 08:21:40;;;;;;;;;;;;;;;9.67;43.82;102338.59;4943671;27;107828;-64
2024/01/10 08:24:06;;;;;;;;;;;;;;;10.20;43.56;102337.41;4941375;27;98123;-64
2024/01/10 08:26:32;;;;;;;;;;;;;;;10.89;43.42;102331.00;4959571;27;103651;-64
2024/01/10 08:28:58;;;;;;;;;;;;;;;11.52;43.12;102329.81;4952794;27;98141;-63
2024/01/10 08:31:24;;;;;;;;;;;;;;;11.92;43.03;102332.78;4954687;27;129987;-63
2024/01/10 08:33:50;;;;;;;;;;;;;;;12.23;43.00;102328.97;4943209;27;98039;-67
2024/01/10 08:36:16;;;;;;;;;;;;;;;12.55;43.09;102338.63;4956149;27;98661;-64
2024/01/10 08:38:42;;;;;;;;;;;;;;;12.91;43.09;102327.53;4939070;27;115968;-67
2024/01/10 08:41:11;;;;;;;;;;;;;;;13.29;43.37;102331.59;4941106;27;108186;-67
2024/01/10 08:43:37;;;;;;;;;;;;;;;13.68;42.95;102326.38;4958194;27;99358;-64
2024/01/10 08:46:03;;;;;;;;;;;;;;;14.05;43.25;102318.63;4959523;27;115476;-64
2024/01/10 08:48:29;;;;;;;;;;;;;;;14.43;43.16;102322.47;4946491;28;99337;-63
2024/01/10 08:50:56;;;;;;;;;;;;;;;14.83;42.99;102321.44;4943258;27;98603;-66
2024/01/10 08:53:22;;;;;;;;;;;;;;;15.25;43.13;102310.84;4960204;27;99297;-67
2024/01/10 08:55:48;;;;;;;;;;;;;;;15.75;42.91;102320.63;4943722;27;99805;-67
2024/01/10 08:58:14;;;;;;;;;;;;;;;16.23;42.73;102313.44;4956724;27;103034;-64
2024/01/10 09:00:40;;;;;;;;;;;;;;;16.72;42.47;102317.81;4944866;27;98144;-64
2024/01/10 09:03:07;;;;;;;;;;;;;;;17.18;42.47;102313.44;4954612;27;98450;-64
2024/01/10 09:05:33;;;;;;;;;;;;;;;17.58;42.16;102318.16;4960140;28;98375;-64
2024/01/10 09:07:59;;;;;;;;;;;;;;;17.81;42.08;102319.59;4936381;27;103277;-64
2024/01/10 09:10:27;;;;;;;;;;;;;;;17.90;42.59;102326.16;4963568;27;119130;-67
2024/01/10 09:12:53;;;;;;;;;;;;;;;17.95;42.52;102327.25;4945411;27;99027;-64
2024/01/10 09:15:19;;;;;;;;;;;;;;;17.98;42.80;102321.25;4957794;27;108179;-67
2024/01/10 09:17:46;;;;;;;;;;;;;;;17.99;43.16;102333.78;4944142;27;98264;-67
2024/01/10 09:20:12;;;;;;;;;;;;;;;17.95;42.97;102324.50;4943948;27;99234;-64
2024/01/10 09:22:39;;;;;;;;;;;;;;;17.92;43.17;102325.91;4946882;27;98594;-64
2024/01/10 09:25:05;;;;;;;;;;;;;;;17.87;43.63;102328.59;4943794;27;124839;-64
2024/01/10 09:27:35;;;;;;;;;;;;;;;17.86;43.48;102330.50;4942336;27;98032;-64
2024/01/10 09:30:10;;;;;;;;;;;;;;;17.87;43.66;102329.41;4977262;27;98065;-67
2024/01/10 09:32:36;;;;;;;;;;;;;;;17.87;43.53;102329.41;4972707;27;99302;-67
2024/01/10 09:35:02;;;;;;;;;;;;;;;17.82;43.69;102331.31;4941349;27;99410;-64
2024/01/10 09:37:28;;;;;;;;;;;;;;;17.76;43.67;102332.41;4939725;27;98142;-67
2024/01/10 09:39:54;;;;;;;;;;;;;;;17.77;43.75;102329.41;4954466;27;126377;-67
2024/01/10 09:42:25;;;;;;;;;;;;;;;17.74;43.91;102335.38;4954963;27;119802;-67
2024/01/10 09:44:51;;;;;;;;;;;;;;;17.76;43.95;102321.50;4942049;27;99597;-64
2024/01/10 09:47:17;;;;;;;;;;;;;;;18.38;43.22;102323.94;4961850;27;104497;-64
2024/01/10 09:49:45;;;;;;;;;;;;;;;18.74;42.93;102321.16;4946787;27;100029;-64
2024/01/10 09:52:24;;;;;;;;;;;;;;;18.02;43.79;102319.59;4959263;27;97924;-67
2024/01/10 09:54:56;;;;;;;;;;;;;;;17.43;44.29;102315.41;4944169;27;98489;-64
2024/01/10 09:57:25;;;;;;;;;;;;;;;17.05;44.52;102320.19;4940819;27;98104;-67
2024/01/10 09:59:51;;;;;;;;;;;;;;;16.75;44.61;102314.63;4960457;27;98382;-64
2024/01/10 10:02:18;;;;;;;;;;;;;;;16.42;44.85;102314.63;4957080;27;98147;-64
2024/01/10 10:04:50;;;;;;;;;;;;;;;16.12;44.92;102323.41;4956250;27;98342;-67
2024/01/10 10:07:16;;;;;;;;;;;;;;;15.80;44.99;102325.28;4979250;27;98805;-64
2024/01/10 10:09:43;;;;;;;;;;;;;;;15.52;45.01;102329.06;4943134;27;126328;-64
2024/01/10 10:12:09;;;;;;;;;;;;;;;15.24;45.41;102328.19;4921801;28;98256;-67
2024/01/10 10:14:35;;;;;;;;;;;;;;;14.98;45.55;102330.63;4952605;28;113131;-67
2024/01/10 10:17:17;;;;;;;;;;;;;;;14.73;45.27;102331.06;4922628;28;98435;-64
2024/01/10 10:19:44;;;;;;;;;;;;;;;14.47;45.71;102324.44;4918647;28;98060;-67
2024/01/10 10:22:10;;;;;;;;;;;;;;;14.28;45.62;102333.09;4952125;28;98303;-64
2024/01/10 10:24:36;;;;;;;;;;;;;;;14.07;45.64;102335.47;4952637;28;98810;-63
2024/01/10 10:27:07;;;;;;;;;;;;;;;13.88;45.55;102337.59;4951082;28;99127;-67
2024/01/10 10:29:33;;;;;;;;;;;;;;;13.69;45.44;102326.13;4950587;28;122374;-67
2024/01/10 10:32:01;;;;;;;;;;;;;;;13.51;45.71;102332.56;4936257;28;106891;-64
2024/01/10 10:34:31;;;;;;;;;;;;;;;13.36;45.90;102339.56;4921526;28;98253;-64
2024/01/10 10:36:57;;;;;;;;;;;;;;;13.22;45.77;102328.19;4932569;28;97985;-67
2024/01/10 10:39:23;;;;;;;;;;;;;;;13.09;45.89;102331.97;4921823;28;130512;-67
2024/01/10 10:41:50;;;;;;;;;;;;;;;12.96;45.55;102334.94;4927305;27;108937;-64
2024/01/10 10:44:17;;;;;;;;;;;;;;;12.85;45.80;102336.63;4957021;27;98587;-64
2024/01/10 10:46:43;;;;;;;;;;;;;;;12.73;45.95;102333.94;4955710;27;98445;-68
2024/01/10 10:49:13;;;;;;;;;;;;;;;12.64;45.65;102323.69;4939929;27;99633;-64
2024/01/10 10:51:38;;;;;;;;;;;;;;;12.55;45.98;102325.94;4959823;27;98965;-67
2024/01/10 10:54:05;;;;;;;;;;;;;;;12.47;45.94;102310.06;4975836;27;121029;-67
2024/01/10 10:56:32;;;;;;;;;;;;;;;12.38;45.83;102308.72;4938318;27;98095;-67
2024/01/10 10:58:59;;;;;;;;;;;;;;;12.29;45.77;102308.28;4942703;27;100909;-67
2024/01/10 11:01:26;;;;;;;;;;;;;;;12.24;45.82;102308.16;4956127;27;98451;-67
2024/01/10 11:03:52;;;;;;;;;;;;;;;12.18;45.73;102304.53;4959939;27;100115;-67
2024/01/10 11:06:18;;;;;;;;;;;;;;;12.13;45.65;102307.06;4936000;27;123057;-68
2024/01/10 11:08:55;;;;;;;;;;;;;;;12.08;45.60;102303.44;4960077;27;98159;-67
2024/01/10 11:11:26;;;;;;;;;;;;;;;12.01;45.89;102300.84;4941071;27;101052;-67
2024/01/10 11:14:01;;;;;;;;;;;;;;;11.95;45.49;102302.59;4950191;27;98097;-64
2024/01/10 11:16:35;;;;;;;;;;;;;;;11.88;45.82;102301.88;4975832;27;98237;-68
2024/01/10 11:19:43;;;;;;;;;;;;;;;11.81;45.71;102303.81;4974741;27;98225;-64
2024/01/10 11:22:47;;;;;;;;;;;;;;;11.72;45.65;102292.53;4973910;27;98939;-68
2024/01/10 11:25:14;;;;;;;;;;;;;;;11.64;45.56;102289.34;4956532;27;98743;-64
2024/01/10 11:27:40;;;;;;;;;;;;;;;11.58;45.88;102290.25;4971821;27;98147;-64
2024/01/10 11:30:06;;;;;;;;;;;;;;;11.52;45.81;102289.28;4954954;27;122957;-68
2024/01/10 11:32:35;;;;;;;;;;;;;;;11.46;45.82;102293.72;4953760;27;98240;-68
2024/01/10 11:35:04;;;;;;;;;;;;;;;11.40;45.86;102291.94;4940445;27;98360;-68
2024/01/10 11:37:43;;;;;;;;;;;;;;;11.35;45.71;102293.66;4939304;27;98800;-68
2024/01/10 11:40:09;;;;;;;;;;;;;;;11.27;45.99;102279.44;4970476;27;98137;-64
2024/01/10 11:42:48;;;;;;;;;;;;;;;11.22;45.90;102273.09;4942087;27;98289;-64
2024/01/10 11:45:30;;;;;;;;;;;;;;;11.16;45.69;102276.69;4956438;27;99495;-68
2024/01/10 11:47:57;;;;;;;;;;;;;;;11.10;45.78;102278.41;4973755;27;98526;-64
2024/01/10 11:50:23;;;;;;;;;;;;;;;11.06;45.62;102288.03;4957571;27;98767;-67
2024/01/10 11:52:52;;;;;;;;;;;;;;;11.01;45.82;102290.59;4956934;28;99076;-68
2024/01/10 11:55:46;;;;;;;;;;;;;;;10.95;45.78;102283.38;4959481;27;98897;-64
2024/01/10 11:58:13;;;;;;;;;;;;;;;10.90;45.75;102297.56;4961728;27;99715;-64
2024/01/10 12:00:42;;;;;;;;;;;;;;;10.87;45.86;102291.78;4971637;27;98433;-67
2024/01/10 12:03:08;;;;;;;;;;;;;;;10.80;45.93;102284.56;4974006;27;98659;-68
2024/01/10 12:05:35;;;;;;;;;;;;;;;10.77;45.70;102282.34;4943112;27;97938;-68
2024/01/10 12:08:04;;;;;;;;;;;;;;;10.73;45.98;102283.84;4954980;27;125879;-64
2024/01/10 12:10:35;;;;;;;;;;;;;;;10.71;45.80;102285.13;4934975;27;109740;-68
2024/01/10 12:13:02;;;;;;;;;;;;;;;10.66;45.95;102276.88;4957956;27;98823;-68
2024/01/10 12:15:28;;;;;;;;;;;;;;;10.62;45.83;102273.81;4967628;27;99710;-68
2024/01/10 12:17:54;;;;;;;;;;;;;;;10.57;45.84;102271.78;4938924;27;127513;-64
2024/01/10 12:20:20;;;;;;;;;;;;;;;10.54;45.69;102268.69;4957217;27;98655;-68
2024/01/10 12:22:46;;;;;;;;;;;;;;;10.51;45.95;102269.97;4938384;28;118973;-67
2024/01/10 12:25:12;;;;;;;;;;;;;;;10.48;45.73;102275.78;4937706;27;111298;-64
2024/01/10 12:27:38;;;;;;;;;;;;;;;10.43;45.93;102264.88;4940619;27;129153;-64
2024/01/10 12:30:05;;;;;;;;;;;;;;;10.42;45.55;102273.19;4937638;27;109512;-64
2024/01/10 12:32:31;;;;;;;;;;;;;;;10.38;45.71;102272.81;4954264;27;99670;-68
2024/01/10 12:35:04;;;;;;;;;;;;;;;10.36;45.91;102274.06;4952399;28;98116;-68
2024/01/10 12:37:30;;;;;;;;;;;;;;;10.32;45.52;102263.72;4959839;27;98261;-64
2024/01/10 12:39:59;;;;;;;;;;;;;;;10.30;45.36;102268.53;4939752;28;98369;-68